Bighorn, Montana
Current Conditions -  °F | °C
As of 9:53 PM on Friday 19 Dec 2014 (Local Time) from KBIL Reporting Station
Overcast Overcast  
Wind Chill: -2°   Ceiling: 8000
Heat Index:   Visibility: 10mi
Dew Point: -6°   Wind: 10mph
Humidity: 57%   Direction: 220°SW
Pressure: 29.9"   Gusts: NA
Location:  46.16°N, 107.45°W
Report Text: KBIL 200453Z 22009KT 10SM OVC080 02/M06 A2990 RMK AO2 SNE0358 SLP148 P0000 T00221056
Loading
Personal Weather Stations






























Interactive Weather Map New forecast layout! Learn more

10-Day Weather Forecast

Advertisements
Track Severe Weather on mobile